Time;durP1;ratioP1;P1;durP2;ratioP2;P2;SDS_P1;SDS_P2;PMS_P1;PMS_P2;Temp;Humidity;BMP_temperature;BMP_pressure;BME280_temperature;BME280_humidity;BME280_pressure;Samples;Min_cycle;Max_cycle;Signal;HPM_P1;HPM_P2
2022/09/26 00:01:58;;;;;;;;;;;;;;;;;;4909715;29;20297;-34
2022/09/26 00:04:23;;;;;;;;;;;;;;;;;;4906281;29;20190;-34
2022/09/26 00:06:48;;;;;;;;;;;;;;;;;;4907526;29;19919;-33
2022/09/26 00:09:14;;;;;;;;;;;;;;;;;;4907256;29;20393;-33
2022/09/26 00:11:39;;;;;;;;;;;;;;;;;;4909448;29;20000;-34
2022/09/26 00:14:04;;;;;;;;;;;;;;;;;;4905458;29;19921;-34
2022/09/26 00:16:29;;;;;;;;;;;;;;;;;;4901165;29;19922;-34
2022/09/26 00:18:54;;;;;;;;;;;;;;;;;;4901551;29;20275;-34
2022/09/26 00:21:20;;;;;;;;;;;;;;;;;;4906334;29;19923;-34
2022/09/26 00:23:45;;;;;;;;;;;;;;;;;;4903569;29;19923;-33
2022/09/26 00:26:10;;;;;;;;;;;;;;;;;;4904462;29;19962;-34
2022/09/26 00:28:35;;;;;;;;;;;;;;;;;;4908630;29;20406;-34
2022/09/26 00:31:00;;;;;;;;;;;;;;;;;;4908061;29;19923;-33
2022/09/26 00:33:25;;;;;;;;;;;;;;;;;;4908317;29;19915;-34
2022/09/26 00:35:51;;;;;;;;;;;;;;;;;;4905672;29;19919;-34
2022/09/26 00:38:16;;;;;;;;;;;;;;;;;;4904681;29;19915;-34
2022/09/26 00:40:41;;;;;;;;;;;;;;;;;;4905625;29;19919;-34
2022/09/26 00:43:06;;;;;;;;;;;;;;;;;;4908455;29;19963;-34
2022/09/26 00:45:32;;;;;;;;;;;;;;;;;;4902948;29;19922;-34
2022/09/26 00:47:58;;;;;;;;;;;;;;;;;;4908150;29;20507;-34
2022/09/26 00:50:23;;;;;;;;;;;;;;;;;;4903759;29;19967;-33
2022/09/26 00:52:48;;;;;;;;;;;;;;;;;;4902625;29;20322;-34
2022/09/26 00:55:13;;;;;;;;;;;;;;;;;;4905833;29;19921;-33
2022/09/26 00:57:39;;;;;;;;;;;;;;;;;;4906549;29;20007;-34
2022/09/26 01:00:04;;;;;;;;;;;;;;;;;;4902667;29;19918;-33
2022/09/26 01:02:29;;;;;;;;;;;;;;;;;;4906827;29;19915;-34
2022/09/26 01:04:54;;;;;;;;;;;;;;;;;;4906975;29;19930;-34
2022/09/26 01:07:19;;;;;;;;;;;;;;;;;;4907379;29;19962;-33
2022/09/26 01:09:46;;;;;;;;;;;;;;;;;;4900321;29;19971;-34
2022/09/26 01:12:11;;;;;;;;;;;;;;;;;;4902633;29;19955;-33
2022/09/26 01:14:36;;;;;;;;;;;;;;;;;;4901622;29;19958;-33
2022/09/26 01:17:02;;;;;;;;;;;;;;;;;;4912805;29;19919;-34
2022/09/26 01:19:27;;;;;;;;;;;;;;;;;;4905915;29;20426;-33
2022/09/26 01:21:53;;;;;;;;;;;;;;;;;;4909530;29;19964;-33
2022/09/26 01:24:18;;;;;;;;;;;;;;;;;;4907530;29;19923;-33
2022/09/26 01:26:43;;;;;;;;;;;;;;;;;;4907155;29;20001;-34
2022/09/26 01:29:08;;;;;;;;;;;;;;;;;;4904290;29;19916;-33
2022/09/26 01:31:33;;;;;;;;;;;;;;;;;;4905178;29;19976;-34
2022/09/26 01:33:58;;;;;;;;;;;;;;;;;;4908055;29;19942;-33
2022/09/26 01:36:24;;;;;;;;;;;;;;;;;;4907950;29;20006;-34
2022/09/26 01:38:49;;;;;;;;;;;;;;;;;;4911499;29;20207;-33
2022/09/26 01:41:14;;;;;;;;;;;;;;;;;;4899653;29;20393;-33
2022/09/26 01:43:40;;;;;;;;;;;;;;;;;;4906162;29;19915;-34
2022/09/26 01:46:05;;;;;;;;;;;;;;;;;;4906611;29;20122;-34
2022/09/26 01:48:30;;;;;;;;;;;;;;;;;;4902099;29;19919;-34
2022/09/26 01:50:55;;;;;;;;;;;;;;;;;;4912072;29;19922;-33
2022/09/26 01:53:21;;;;;;;;;;;;;;;;;;4904723;29;19975;-33
2022/09/26 01:55:46;;;;;;;;;;;;;;;;;;4906124;29;19926;-34
2022/09/26 01:58:11;;;;;;;;;;;;;;;;;;4907924;29;20041;-33
2022/09/26 02:00:36;;;;;;;;;;;;;;;;;;4901925;29;19919;-33
2022/09/26 02:03:01;;;;;;;;;;;;;;;;;;4907063;29;20388;-34
2022/09/26 02:05:27;;;;;;;;;;;;;;;;;;4906441;29;19958;-34
2022/09/26 02:07:52;;;;;;;;;;;;;;;;;;4904950;29;19926;-33
2022/09/26 02:10:18;;;;;;;;;;;;;;;;;;4903594;29;19923;-33
2022/09/26 02:12:44;;;;;;;;;;;;;;;;;;4903853;29;20154;-33
2022/09/26 02:15:10;;;;;;;;;;;;;;;;;;4914511;29;19915;-33
2022/09/26 02:17:35;;;;;;;;;;;;;;;;;;4908508;29;19923;-34
2022/09/26 02:20:00;;;;;;;;;;;;;;;;;;4907263;29;19933;-34
2022/09/26 02:22:25;;;;;;;;;;;;;;;;;;4903292;29;19919;-34
2022/09/26 02:24:50;;;;;;;;;;;;;;;;;;4907568;29;19946;-33
2022/09/26 02:27:16;;;;;;;;;;;;;;;;;;4907083;29;19934;-33
2022/09/26 02:29:41;;;;;;;;;;;;;;;;;;4906870;29;19922;-33
2022/09/26 02:32:11;;;;;;;;;;;;;;;;;;4912725;29;20053;-33
2022/09/26 02:34:36;;;;;;;;;;;;;;;;;;4905495;29;20286;-33
2022/09/26 02:37:01;;;;;;;;;;;;;;;;;;4908994;29;19965;-34
2022/09/26 02:39:26;;;;;;;;;;;;;;;;;;4903596;29;19915;-33
2022/09/26 02:41:52;;;;;;;;;;;;;;;;;;4897885;29;20047;-33
2022/09/26 02:44:17;;;;;;;;;;;;;;;;;;4896599;29;19971;-34
2022/09/26 02:46:42;;;;;;;;;;;;;;;;;;4898342;29;19919;-33
2022/09/26 02:49:08;;;;;;;;;;;;;;;;;;4898770;29;19955;-34
2022/09/26 02:51:33;;;;;;;;;;;;;;;;;;4904057;29;19922;-33
2022/09/26 02:53:58;;;;;;;;;;;;;;;;;;4925485;23;20372;-34
2022/09/26 02:56:23;;;;;;;;;;;;;;;;;;4943613;28;19977;-33
2022/09/26 02:58:49;;;;;;;;;;;;;;;;;;4938438;28;19950;-33
2022/09/26 03:01:14;;;;;;;;;;;;;;;;;;4938286;28;20171;-33
2022/09/26 03:03:39;;;;;;;;;;;;;;;;;;4940318;28;20075;-33
2022/09/26 03:06:05;;;;;;;;;;;;;;;;;;4942965;28;19929;-33
2022/09/26 03:08:30;;;;;;;;;;;;;;;;;;4943518;28;19918;-33
2022/09/26 03:10:55;;;;;;;;;;;;;;;;;;4942263;28;19923;-33
2022/09/26 03:13:20;;;;;;;;;;;;;;;;;;4947493;28;20380;-33
2022/09/26 03:15:45;;;;;;;;;;;;;;;;;;4942710;28;19919;-33
2022/09/26 03:18:10;;;;;;;;;;;;;;;;;;4941943;28;19954;-33
2022/09/26 03:20:35;;;;;;;;;;;;;;;;;;4941476;28;21027;-33
2022/09/26 03:23:01;;;;;;;;;;;;;;;;;;4945533;28;19981;-33
2022/09/26 03:25:26;;;;;;;;;;;;;;;;;;4946549;28;19938;-33
2022/09/26 03:27:51;;;;;;;;;;;;;;;;;;4944271;28;19929;-33
2022/09/26 03:30:16;;;;;;;;;;;;;;;;;;4943342;28;20094;-33
2022/09/26 03:32:41;;;;;;;;;;;;;;;;;;4943894;28;19938;-33
2022/09/26 03:35:06;;;;;;;;;;;;;;;;;;4937045;28;19927;-33
2022/09/26 03:37:33;;;;;;;;;;;;;;;;;;4941601;28;20273;-33
2022/09/26 03:39:59;;;;;;;;;;;;;;;;;;4941710;28;20408;-33
2022/09/26 03:42:24;;;;;;;;;;;;;;;;;;4948795;28;19963;-33
2022/09/26 03:44:50;;;;;;;;;;;;;;;;;;4944470;28;19930;-33
2022/09/26 03:47:17;;;;;;;;;;;;;;;;;;4939528;28;19962;-33
2022/09/26 03:49:42;;;;;;;;;;;;;;;;;;4944661;28;20145;-33
2022/09/26 03:52:07;;;;;;;;;;;;;;;;;;4944576;28;20054;-33
2022/09/26 03:54:32;;;;;;;;;;;;;;;;;;4946227;28;20013;-33
2022/09/26 03:56:57;;;;;;;;;;;;;;;;;;4941932;28;20410;-33
2022/09/26 03:59:22;;;;;;;;;;;;;;;;;;4942871;28;19915;-34
2022/09/26 04:01:47;;;;;;;;;;;;;;;;;;4942466;28;19918;-33
2022/09/26 04:04:15;;;;;;;;;;;;;;;;;;4939469;28;19986;-33
2022/09/26 04:06:40;;;;;;;;;;;;;;;;;;4943577;28;19977;-33
2022/09/26 04:09:05;;;;;;;;;;;;;;;;;;4943321;28;19966;-33
2022/09/26 04:11:30;;;;;;;;;;;;;;;;;;4939527;28;19937;-33
2022/09/26 04:13:56;;;;;;;;;;;;;;;;;;4947481;28;19981;-33
2022/09/26 04:16:21;;;;;;;;;;;;;;;;;;4940248;28;19918;-33
2022/09/26 04:18:47;;;;;;;;;;;;;;;;;;4944979;28;20266;-33
2022/09/26 04:21:14;;;;;;;;;;;;;;;;;;4943437;28;20360;-33
2022/09/26 04:23:40;;;;;;;;;;;;;;;;;;4935793;28;20363;-33
2022/09/26 04:26:05;;;;;;;;;;;;;;;;;;4947021;28;20021;-33
2022/09/26 04:28:30;;;;;;;;;;;;;;;;;;4942894;28;20565;-33
2022/09/26 04:30:55;;;;;;;;;;;;;;;;;;4946415;28;19914;-33
2022/09/26 04:33:20;;;;;;;;;;;;;;;;;;4941979;28;19990;-33
2022/09/26 04:35:46;;;;;;;;;;;;;;;;;;4937594;28;20474;-33
2022/09/26 04:38:11;;;;;;;;;;;;;;;;;;4945497;28;19949;-33
2022/09/26 04:40:36;;;;;;;;;;;;;;;;;;4940558;28;19930;-33
2022/09/26 04:43:01;;;;;;;;;;;;;;;;;;4940430;28;21043;-33
2022/09/26 04:45:27;;;;;;;;;;;;;;;;;;4944928;28;19962;-33
2022/09/26 04:47:52;;;;;;;;;;;;;;;;;;4944188;28;20353;-33
2022/09/26 04:50:17;;;;;;;;;;;;;;;;;;4939478;28;19965;-33
2022/09/26 04:52:43;;;;;;;;;;;;;;;;;;4941777;28;19929;-33
2022/09/26 04:55:08;;;;;;;;;;;;;;;;;;4941849;28;19928;-33
2022/09/26 04:57:36;;;;;;;;;;;;;;;;;;4944964;28;19921;-33
2022/09/26 05:00:02;;;;;;;;;;;;;;;;;;4941873;28;19933;-33
2022/09/26 05:02:27;;;;;;;;;;;;;;;;;;4937499;28;20399;-33
2022/09/26 05:04:54;;;;;;;;;;;;;;;;;;4940765;28;19925;-33
2022/09/26 05:07:19;;;;;;;;;;;;;;;;;;4945561;28;20416;-33
2022/09/26 05:09:45;;;;;;;;;;;;;;;;;;4942597;28;20001;-33
2022/09/26 05:12:11;;;;;;;;;;;;;;;;;;4943644;28;20320;-33
2022/09/26 05:14:36;;;;;;;;;;;;;;;;;;4945897;28;19969;-33
2022/09/26 05:17:02;;;;;;;;;;;;;;;;;;4945681;29;20004;-33
2022/09/26 05:19:27;;;;;;;;;;;;;;;;;;4939535;29;19923;-33
2022/09/26 05:21:52;;;;;;;;;;;;;;;;;;4954950;28;19925;-33
2022/09/26 05:27:01;;;;;;;;;;;;;;;;;;4952619;28;20006;-33
2022/09/26 05:29:27;;;;;;;;;;;;;;;;;;4942562;28;20022;-33
2022/09/26 05:31:54;;;;;;;;;;;;;;;;;;4947011;28;20373;-33
2022/09/26 05:34:19;;;;;;;;;;;;;;;;;;4949070;28;19914;-33
2022/09/26 05:36:44;;;;;;;;;;;;;;;;;;4952735;28;19915;-33
2022/09/26 05:40:55;;;;;;;;;;;;;;;;;;4945088;28;20420;-33
2022/09/26 05:41:55;;;;;;;;;;;;;;;;;;4946644;28;19958;-33
2022/09/26 05:44:20;;;;;;;;;;;;;;;;;;4946965;28;19958;-33
2022/09/26 05:46:46;;;;;;;;;;;;;;;;;;4949089;28;19921;-33
2022/09/26 05:49:11;;;;;;;;;;;;;;;;;;4950734;28;20299;-33
2022/09/26 05:51:39;;;;;;;;;;;;;;;;;;4950500;28;19958;-33
2022/09/26 05:54:04;;;;;;;;;;;;;;;;;;4953932;28;19920;-33
2022/09/26 05:56:31;;;;;;;;;;;;;;;;;;4951848;28;19922;-33
2022/09/26 05:58:56;;;;;;;;;;;;;;;;;;4951100;28;19926;-33
2022/09/26 06:01:21;;;;;;;;;;;;;;;;;;4953580;28;19937;-33
2022/09/26 06:03:46;;;;;;;;;;;;;;;;;;4947975;28;20013;-33
2022/09/26 06:06:13;;;;;;;;;;;;;;;;;;4957538;28;20207;-33
2022/09/26 06:08:39;;;;;;;;;;;;;;;;;;4943318;29;19933;-33
2022/09/26 06:11:04;;;;;;;;;;;;;;;;;;4958721;28;19940;-33
2022/09/26 06:13:29;;;;;;;;;;;;;;;;;;4953892;28;19998;-33
2022/09/26 06:15:55;;;;;;;;;;;;;;;;;;4956966;28;20455;-33
2022/09/26 06:18:20;;;;;;;;;;;;;;;;;;4951521;28;20380;-33
2022/09/26 06:20:45;;;;;;;;;;;;;;;;;;4943600;28;19926;-33
2022/09/26 06:23:11;;;;;;;;;;;;;;;;;;4950458;28;20281;-33
2022/09/26 06:25:36;;;;;;;;;;;;;;;;;;4952360;28;19977;-33
2022/09/26 06:28:01;;;;;;;;;;;;;;;;;;4943909;28;19925;-33
2022/09/26 06:30:26;;;;;;;;;;;;;;;;;;4949052;28;19954;-33
2022/09/26 06:32:51;;;;;;;;;;;;;;;;;;4942559;28;19934;-33
2022/09/26 06:35:18;;;;;;;;;;;;;;;;;;4950129;28;19926;-33
2022/09/26 06:37:43;;;;;;;;;;;;;;;;;;4938513;28;19922;-33
2022/09/26 06:40:10;;;;;;;;;;;;;;;;;;4945491;28;19918;-33
2022/09/26 06:42:36;;;;;;;;;;;;;;;;;;4949731;28;19919;-33
2022/09/26 06:45:01;;;;;;;;;;;;;;;;;;4956296;28;20396;-33
2022/09/26 06:47:27;;;;;;;;;;;;;;;;;;4946680;28;19929;-33
2022/09/26 06:49:52;;;;;;;;;;;;;;;;;;4946871;28;20352;-33
2022/09/26 06:52:17;;;;;;;;;;;;;;;;;;4949842;28;20440;-33
2022/09/26 06:54:42;;;;;;;;;;;;;;;;;;4945684;28;19923;-33
2022/09/26 06:57:08;;;;;;;;;;;;;;;;;;4944554;28;20005;-33
2022/09/26 06:59:33;;;;;;;;;;;;;;;;;;4949841;28;19923;-33
2022/09/26 07:01:58;;;;;;;;;;;;;;;;;;4939593;28;19922;-33
2022/09/26 07:04:26;;;;;;;;;;;;;;;;;;4938824;28;20319;-33
2022/09/26 07:06:51;;;;;;;;;;;;;;;;;;4939814;28;20267;-33
2022/09/26 07:09:16;;;;;;;;;;;;;;;;;;4940997;28;19915;-33
2022/09/26 07:11:45;;;;;;;;;;;;;;;;;;4940152;28;20392;-33
2022/09/26 07:14:11;;;;;;;;;;;;;;;;;;4938370;28;19918;-33
2022/09/26 07:16:37;;;;;;;;;;;;;;;;;;4937976;28;19925;-33
2022/09/26 07:19:03;;;;;;;;;;;;;;;;;;4941138;28;19922;-33
2022/09/26 07:21:28;;;;;;;;;;;;;;;;;;4938041;28;20020;-33
2022/09/26 07:23:53;;;;;;;;;;;;;;;;;;4936923;28;19973;-33
2022/09/26 07:26:19;;;;;;;;;;;;;;;;;;4938862;28;19972;-33
2022/09/26 07:28:44;;;;;;;;;;;;;;;;;;4941387;28;19918;-33
2022/09/26 07:31:09;;;;;;;;;;;;;;;;;;4941166;28;19918;-33
2022/09/26 07:33:34;;;;;;;;;;;;;;;;;;4941935;28;20377;-33
2022/09/26 07:36:00;;;;;;;;;;;;;;;;;;4941082;28;19922;-33
2022/09/26 07:38:25;;;;;;;;;;;;;;;;;;4933781;28;19918;-33
2022/09/26 07:40:53;;;;;;;;;;;;;;;;;;4949495;28;19992;-33
2022/09/26 07:43:18;;;;;;;;;;;;;;;;;;4936911;23;19930;-33
2022/09/26 07:51:22;;;;;;;;;;;;;;;;;;4891371;29;20221;-33
2022/09/26 07:53:47;;;;;;;;;;;;;;;;;;4902793;29;19915;-33
2022/09/26 07:56:12;;;;;;;;;;;;;;;;;;4922205;23;19931;-33
2022/09/26 07:58:38;;;;;;;;;;;;;;;;;;4922743;29;19919;-33
2022/09/26 08:01:03;;;;;;;;;;;;;;;;;;4925010;29;20498;-33
2022/09/26 08:03:28;;;;;;;;;;;;;;;;;;4921544;29;19942;-33
2022/09/26 08:05:53;;;;;;;;;;;;;;;;;;4930386;29;19919;-33
2022/09/26 08:08:19;;;;;;;;;;;;;;;;;;4931471;29;20581;-33
2022/09/26 08:10:44;;;;;;;;;;;;;;;;;;4925287;29;19918;-33
2022/09/26 08:13:10;;;;;;;;;;;;;;;;;;4929311;29;19990;-33
2022/09/26 08:15:35;;;;;;;;;;;;;;;;;;4925885;29;19919;-33
2022/09/26 08:18:00;;;;;;;;;;;;;;;;;;4927404;29;20119;-33
2022/09/26 08:20:25;;;;;;;;;;;;;;;;;;4924434;29;20266;-33
2022/09/26 08:22:50;;;;;;;;;;;;;;;;;;4927906;29;20423;-33
2022/09/26 08:25:15;;;;;;;;;;;;;;;;;;4918864;29;19923;-33
2022/09/26 08:27:42;;;;;;;;;;;;;;;;;;4921142;29;20218;-33
2022/09/26 08:30:09;;;;;;;;;;;;;;;;;;4925232;29;19926;-33
2022/09/26 08:32:36;;;;;;;;;;;;;;;;;;4923626;29;19922;-33
2022/09/26 08:35:01;;;;;;;;;;;;;;;;;;4923321;29;19923;-33
2022/09/26 08:37:26;;;;;;;;;;;;;;;;;;4922611;29;19941;-33
2022/09/26 08:39:52;;;;;;;;;;;;;;;;;;4926161;29;19922;-33
2022/09/26 08:42:22;;;;;;;;;;;;;;;;;;4924371;29;19971;-34
2022/09/26 08:44:47;;;;;;;;;;;;;;;;;;4922228;29;20397;-34
2022/09/26 08:47:15;;;;;;;;;;;;;;;;;;4923137;29;19925;-33
2022/09/26 08:49:41;;;;;;;;;;;;;;;;;;4922074;29;20353;-33
2022/09/26 08:52:06;;;;;;;;;;;;;;;;;;4925991;29;20327;-33
2022/09/26 08:54:32;;;;;;;;;;;;;;;;;;4924999;29;19922;-33
2022/09/26 08:56:57;;;;;;;;;;;;;;;;;;4920219;29;19946;-33
2022/09/26 08:59:22;;;;;;;;;;;;;;;;;;4924394;29;20005;-33
2022/09/26 09:01:47;;;;;;;;;;;;;;;;;;4929685;29;19946;-33
2022/09/26 09:04:12;;;;;;;;;;;;;;;;;;4925427;29;20388;-33
2022/09/26 09:06:37;;;;;;;;;;;;;;;;;;4931979;29;19926;-33
2022/09/26 09:09:03;;;;;;;;;;;;;;;;;;4926819;29;19919;-33
2022/09/26 09:11:28;;;;;;;;;;;;;;;;;;4927820;29;20296;-33
2022/09/26 09:13:53;;;;;;;;;;;;;;;;;;4922761;29;19922;-33
2022/09/26 09:16:18;;;;;;;;;;;;;;;;;;4931266;29;20294;-33
2022/09/26 09:18:43;;;;;;;;;;;;;;;;;;4928349;29;19922;-33
2022/09/26 09:21:08;;;;;;;;;;;;;;;;;;4915015;29;20189;-33
2022/09/26 09:23:34;;;;;;;;;;;;;;;;;;4928078;29;19919;-33
2022/09/26 09:25:59;;;;;;;;;;;;;;;;;;4928378;29;19919;-33
2022/09/26 09:28:24;;;;;;;;;;;;;;;;;;4929417;29;20394;-33
2022/09/26 09:30:49;;;;;;;;;;;;;;;;;;4929697;29;21366;-33
2022/09/26 09:33:14;;;;;;;;;;;;;;;;;;4929271;29;19935;-33
2022/09/26 09:35:39;;;;;;;;;;;;;;;;;;4929316;29;19929;-33
2022/09/26 09:38:05;;;;;;;;;;;;;;;;;;4931911;29;19915;-33
2022/09/26 09:40:30;;;;;;;;;;;;;;;;;;4924656;29;19926;-33
2022/09/26 09:42:55;;;;;;;;;;;;;;;;;;4931254;29;19923;-33
2022/09/26 09:45:20;;;;;;;;;;;;;;;;;;4927329;29;19921;-33
2022/09/26 09:47:45;;;;;;;;;;;;;;;;;;4936373;29;19971;-33
2022/09/26 09:50:10;;;;;;;;;;;;;;;;;;4937497;29;20131;-33
2022/09/26 09:52:37;;;;;;;;;;;;;;;;;;4933026;29;20111;-33
2022/09/26 09:55:02;;;;;;;;;;;;;;;;;;4930446;29;19974;-33
2022/09/26 09:57:27;;;;;;;;;;;;;;;;;;4933742;29;20169;-35
2022/09/26 09:59:52;;;;;;;;;;;;;;;;;;4932299;29;19962;-34
2022/09/26 10:02:18;;;;;;;;;;;;;;;;;;4936634;29;19918;-35
2022/09/26 10:04:45;;;;;;;;;;;;;;;;;;4928973;29;20376;-34
2022/09/26 10:07:10;;;;;;;;;;;;;;;;;;4936964;29;19925;-34
2022/09/26 10:09:36;;;;;;;;;;;;;;;;;;4923215;29;20312;-35
2022/09/26 10:12:01;;;;;;;;;;;;;;;;;;4929774;29;19923;-35
2022/09/26 10:14:27;;;;;;;;;;;;;;;;;;4929718;29;20597;-35
2022/09/26 10:16:52;;;;;;;;;;;;;;;;;;4927395;29;19934;-34
2022/09/26 10:19:17;;;;;;;;;;;;;;;;;;4930292;29;19922;-34
2022/09/26 10:21:42;;;;;;;;;;;;;;;;;;4929386;29;20420;-35
2022/09/26 10:24:08;;;;;;;;;;;;;;;;;;4923369;29;19922;-35
2022/09/26 10:26:33;;;;;;;;;;;;;;;;;;4927763;29;19926;-35
2022/09/26 10:28:59;;;;;;;;;;;;;;;;;;4927517;29;19942;-35
2022/09/26 10:31:24;;;;;;;;;;;;;;;;;;4925965;29;19941;-35
2022/09/26 10:33:52;;;;;;;;;;;;;;;;;;4925709;29;20391;-34
2022/09/26 10:36:18;;;;;;;;;;;;;;;;;;4924735;29;19969;-35
2022/09/26 10:40:43;;;;;;;;;;;;;;;;;;4923307;29;20398;-34
2022/09/26 10:41:28;;;;;;;;;;;;;;;;;;4931524;29;19981;-35
2022/09/26 10:43:53;;;;;;;;;;;;;;;;;;4931876;29;20424;-35
2022/09/26 10:46:19;;;;;;;;;;;;;;;;;;4930118;29;19915;-35
2022/09/26 10:48:47;;;;;;;;;;;;;;;;;;4936710;29;19922;-35
2022/09/26 10:51:12;;;;;;;;;;;;;;;;;;4930347;29;19919;-35
2022/09/26 10:53:39;;;;;;;;;;;;;;;;;;4929427;29;20380;-35
2022/09/26 10:56:04;;;;;;;;;;;;;;;;;;4930900;29;20350;-35
2022/09/26 10:58:29;;;;;;;;;;;;;;;;;;4937110;29;19945;-35
2022/09/26 11:00:54;;;;;;;;;;;;;;;;;;4928322;29;19969;-35
2022/09/26 11:03:19;;;;;;;;;;;;;;;;;;4926838;29;20194;-35
2022/09/26 11:05:57;;;;;;;;;;;;;;;;;;4933808;29;19946;-35
2022/09/26 11:08:23;;;;;;;;;;;;;;;;;;4929398;29;19918;-35
2022/09/26 11:10:48;;;;;;;;;;;;;;;;;;4923936;29;19970;-35
2022/09/26 11:13:14;;;;;;;;;;;;;;;;;;4932170;29;20447;-35
2022/09/26 11:15:41;;;;;;;;;;;;;;;;;;4934002;29;20166;-35
2022/09/26 11:18:07;;;;;;;;;;;;;;;;;;4932574;29;20025;-35
2022/09/26 11:20:32;;;;;;;;;;;;;;;;;;4930062;29;20028;-34
2022/09/26 11:22:59;;;;;;;;;;;;;;;;;;4931053;29;20009;-35
2022/09/26 11:25:24;;;;;;;;;;;;;;;;;;4928922;29;21173;-35
2022/09/26 11:27:49;;;;;;;;;;;;;;;;;;4929821;29;20428;-35
2022/09/26 11:30:18;;;;;;;;;;;;;;;;;;4932795;29;20074;-35
2022/09/26 11:32:43;;;;;;;;;;;;;;;;;;4934785;29;20017;-35
2022/09/26 11:35:08;;;;;;;;;;;;;;;;;;4926811;29;20429;-35
2022/09/26 11:37:34;;;;;;;;;;;;;;;;;;4921749;29;19915;-35
2022/09/26 11:39:59;;;;;;;;;;;;;;;;;;4931745;29;19922;-35
2022/09/26 11:42:24;;;;;;;;;;;;;;;;;;4931157;29;20336;-35
2022/09/26 11:44:49;;;;;;;;;;;;;;;;;;4923142;29;19926;-35
2022/09/26 11:47:15;;;;;;;;;;;;;;;;;;4930423;29;19922;-35
2022/09/26 11:49:40;;;;;;;;;;;;;;;;;;4931874;29;20025;-34
2022/09/26 11:52:06;;;;;;;;;;;;;;;;;;4937438;29;19914;-35
2022/09/26 11:54:32;;;;;;;;;;;;;;;;;;4930443;29;20005;-35
2022/09/26 11:56:57;;;;;;;;;;;;;;;;;;4924871;29;19978;-35
2022/09/26 11:59:22;;;;;;;;;;;;;;;;;;4931970;29;19914;-35
2022/09/26 12:01:48;;;;;;;;;;;;;;;;;;4931044;29;19930;-35
2022/09/26 12:04:14;;;;;;;;;;;;;;;;;;4925698;29;19921;-35
2022/09/26 12:06:40;;;;;;;;;;;;;;;;;;4923980;29;19919;-35
2022/09/26 12:09:06;;;;;;;;;;;;;;;;;;4927951;29;20006;-35
2022/09/26 12:11:32;;;;;;;;;;;;;;;;;;4922577;29;19923;-35
2022/09/26 12:13:57;;;;;;;;;;;;;;;;;;4921581;29;19971;-35
2022/09/26 12:16:23;;;;;;;;;;;;;;;;;;4925886;29;19918;-34
2022/09/26 12:18:48;;;;;;;;;;;;;;;;;;4926906;29;19923;-35
2022/09/26 12:21:13;;;;;;;;;;;;;;;;;;4928657;29;19919;-35
2022/09/26 12:23:38;;;;;;;;;;;;;;;;;;4925842;29;19919;-35
2022/09/26 12:26:04;;;;;;;;;;;;;;;;;;4924663;29;20002;-35
2022/09/26 12:28:30;;;;;;;;;;;;;;;;;;4923128;29;20440;-35
2022/09/26 12:30:56;;;;;;;;;;;;;;;;;;4924665;29;19925;-35
2022/09/26 12:33:21;;;;;;;;;;;;;;;;;;4927108;29;20338;-35
2022/09/26 12:35:46;;;;;;;;;;;;;;;;;;4926764;29;19922;-35
2022/09/26 12:38:13;;;;;;;;;;;;;;;;;;4924316;29;19915;-35
2022/09/26 12:40:38;;;;;;;;;;;;;;;;;;4921034;29;19970;-35
2022/09/26 12:43:03;;;;;;;;;;;;;;;;;;4923996;29;20079;-35
2022/09/26 12:45:28;;;;;;;;;;;;;;;;;;4925690;29;20266;-34
2022/09/26 12:47:53;;;;;;;;;;;;;;;;;;4925753;29;19915;-35
2022/09/26 12:50:19;;;;;;;;;;;;;;;;;;4919251;29;19915;-35
2022/09/26 12:52:44;;;;;;;;;;;;;;;;;;4926942;29;20274;-35
2022/09/26 12:55:09;;;;;;;;;;;;;;;;;;4927645;29;19975;-34
2022/09/26 12:57:37;;;;;;;;;;;;;;;;;;4921976;29;20368;-35
2022/09/26 13:00:09;;;;;;;;;;;;;;;;;;4928468;29;19942;-35
2022/09/26 13:02:34;;;;;;;;;;;;;;;;;;4927673;29;19935;-35
2022/09/26 13:05:01;;;;;;;;;;;;;;;;;;4926562;29;19930;-35
2022/09/26 13:07:26;;;;;;;;;;;;;;;;;;4925468;29;19998;-35
2022/09/26 13:09:51;;;;;;;;;;;;;;;;;;4922849;29;20033;-35
2022/09/26 13:12:17;;;;;;;;;;;;;;;;;;4924584;29;19922;-35
2022/09/26 13:14:42;;;;;;;;;;;;;;;;;;4921871;29;19915;-35
2022/09/26 13:17:09;;;;;;;;;;;;;;;;;;4928535;29;19974;-35
2022/09/26 13:19:34;;;;;;;;;;;;;;;;;;4921101;29;19923;-35
2022/09/26 13:22:00;;;;;;;;;;;;;;;;;;4921891;29;19919;-35
2022/09/26 13:24:27;;;;;;;;;;;;;;;;;;4924548;29;19937;-35
2022/09/26 13:26:53;;;;;;;;;;;;;;;;;;4926032;29;19915;-35
2022/09/26 13:29:19;;;;;;;;;;;;;;;;;;4927738;29;20366;-35
2022/09/26 13:31:44;;;;;;;;;;;;;;;;;;4921396;29;20254;-35
2022/09/26 13:34:11;;;;;;;;;;;;;;;;;;4922880;29;19927;-35
2022/09/26 13:36:37;;;;;;;;;;;;;;;;;;4928800;29;20300;-35
2022/09/26 13:39:02;;;;;;;;;;;;;;;;;;4921481;29;19914;-35
2022/09/26 13:41:27;;;;;;;;;;;;;;;;;;4922855;29;19918;-35
2022/09/26 13:43:53;;;;;;;;;;;;;;;;;;4923467;29;20373;-35
2022/09/26 13:46:18;;;;;;;;;;;;;;;;;;4923616;29;19926;-35
2022/09/26 13:48:45;;;;;;;;;;;;;;;;;;4925572;29;19922;-35
2022/09/26 13:51:10;;;;;;;;;;;;;;;;;;4921597;29;19940;-35
2022/09/26 13:53:36;;;;;;;;;;;;;;;;;;4924970;29;20364;-35
2022/09/26 13:56:02;;;;;;;;;;;;;;;;;;4936885;23;20022;-34
2022/09/26 13:58:27;;;;;;;;;;;;;;;;;;4916452;29;20369;-34
2022/09/26 14:00:52;;;;;;;;;;;;;;;;;;4915203;29;19919;-34
2022/09/26 14:03:18;;;;;;;;;;;;;;;;;;4919139;29;20010;-34
2022/09/26 14:05:43;;;;;;;;;;;;;;;;;;4912877;29;19911;-34
2022/09/26 14:10:52;;;;;;;;;;;;;;;;;;4894934;29;20388;-34
2022/09/26 14:13:20;;;;;;;;;;;;;;;;;;4895309;29;19919;-34
2022/09/26 14:15:46;;;;;;;;;;;;;;;;;;4898912;29;20370;-34
2022/09/26 14:18:11;;;;;;;;;;;;;;;;;;4896383;29;19923;-34
2022/09/26 14:20:37;;;;;;;;;;;;;;;;;;4904811;29;20366;-34
2022/09/26 14:23:03;;;;;;;;;;;;;;;;;;4896619;29;19915;-34
2022/09/26 14:25:28;;;;;;;;;;;;;;;;;;4892690;29;19975;-34
2022/09/26 14:27:53;;;;;;;;;;;;;;;;;;4896444;29;20018;-34
2022/09/26 14:30:19;;;;;;;;;;;;;;;;;;4895909;29;19915;-33
2022/09/26 14:32:44;;;;;;;;;;;;;;;;;;4903241;29;19998;-34
2022/09/26 14:35:09;;;;;;;;;;;;;;;;;;4899291;29;20270;-34
2022/09/26 14:37:34;;;;;;;;;;;;;;;;;;4896735;29;20145;-34
2022/09/26 14:39:59;;;;;;;;;;;;;;;;;;4898895;29;19998;-34
2022/09/26 14:42:25;;;;;;;;;;;;;;;;;;4894932;29;20404;-34
2022/09/26 14:44:50;;;;;;;;;;;;;;;;;;4894255;29;19912;-34
2022/09/26 14:47:15;;;;;;;;;;;;;;;;;;4895208;29;20405;-34
2022/09/26 14:49:40;;;;;;;;;;;;;;;;;;4900454;29;19951;-33
2022/09/26 14:52:05;;;;;;;;;;;;;;;;;;4899738;29;20267;-34
2022/09/26 14:54:31;;;;;;;;;;;;;;;;;;4896985;29;19966;-34
2022/09/26 14:56:56;;;;;;;;;;;;;;;;;;4896314;29;19927;-34
2022/09/26 14:59:21;;;;;;;;;;;;;;;;;;4897905;29;19949;-34
2022/09/26 15:01:46;;;;;;;;;;;;;;;;;;4899679;29;19919;-34
2022/09/26 15:04:11;;;;;;;;;;;;;;;;;;4895804;29;19919;-34
2022/09/26 15:06:36;;;;;;;;;;;;;;;;;;4898444;29;20018;-34
2022/09/26 15:09:02;;;;;;;;;;;;;;;;;;4898621;29;19923;-34
2022/09/26 15:11:27;;;;;;;;;;;;;;;;;;4894238;29;20605;-33
2022/09/26 15:13:54;;;;;;;;;;;;;;;;;;4898664;29;19915;-34
2022/09/26 15:16:19;;;;;;;;;;;;;;;;;;4897917;29;19916;-34
2022/09/26 15:18:44;;;;;;;;;;;;;;;;;;4898625;29;20263;-34
2022/09/26 15:21:09;;;;;;;;;;;;;;;;;;4900242;29;19974;-34
2022/09/26 15:23:35;;;;;;;;;;;;;;;;;;4898938;29;20301;-33
2022/09/26 15:26:01;;;;;;;;;;;;;;;;;;4893969;29;19983;-33
2022/09/26 15:28:26;;;;;;;;;;;;;;;;;;4896040;29;20386;-33
2022/09/26 15:30:51;;;;;;;;;;;;;;;;;;4897700;29;19930;-33
2022/09/26 15:33:17;;;;;;;;;;;;;;;;;;4895251;29;19916;-34
2022/09/26 15:35:42;;;;;;;;;;;;;;;;;;4900476;29;19975;-34
2022/09/26 15:38:07;;;;;;;;;;;;;;;;;;4895790;29;20051;-34
2022/09/26 15:40:32;;;;;;;;;;;;;;;;;;4891104;29;19953;-34
2022/09/26 15:42:59;;;;;;;;;;;;;;;;;;4896986;29;19916;-34
2022/09/26 15:45:26;;;;;;;;;;;;;;;;;;4893441;29;19920;-33
2022/09/26 15:47:51;;;;;;;;;;;;;;;;;;4895005;29;19958;-34
2022/09/26 15:50:18;;;;;;;;;;;;;;;;;;4889841;29;19971;-33
2022/09/26 15:52:43;;;;;;;;;;;;;;;;;;4895064;29;19922;-33
2022/09/26 15:55:08;;;;;;;;;;;;;;;;;;4893202;29;19919;-34
2022/09/26 15:57:33;;;;;;;;;;;;;;;;;;4895378;29;20400;-33
2022/09/26 15:59:58;;;;;;;;;;;;;;;;;;4895077;29;20244;-34
2022/09/26 16:02:25;;;;;;;;;;;;;;;;;;4892636;29;20006;-33
2022/09/26 16:04:50;;;;;;;;;;;;;;;;;;4895315;29;20306;-34
2022/09/26 16:07:16;;;;;;;;;;;;;;;;;;4897281;29;19919;-33
2022/09/26 16:09:42;;;;;;;;;;;;;;;;;;4892305;29;20017;-34
2022/09/26 16:12:07;;;;;;;;;;;;;;;;;;4892034;29;19919;-34
2022/09/26 16:14:32;;;;;;;;;;;;;;;;;;4891326;29;20278;-34
2022/09/26 16:16:58;;;;;;;;;;;;;;;;;;4897549;29;19919;-34
2022/09/26 16:19:23;;;;;;;;;;;;;;;;;;4895215;29;20516;-34
2022/09/26 16:21:48;;;;;;;;;;;;;;;;;;4893606;29;19978;-33
2022/09/26 16:24:13;;;;;;;;;;;;;;;;;;4891404;29;20297;-34
2022/09/26 16:26:39;;;;;;;;;;;;;;;;;;4895106;29;20013;-33
2022/09/26 16:29:05;;;;;;;;;;;;;;;;;;4897396;29;19919;-33
2022/09/26 16:31:30;;;;;;;;;;;;;;;;;;4895165;29;20413;-34
2022/09/26 16:33:56;;;;;;;;;;;;;;;;;;4895484;29;19920;-33
2022/09/26 16:36:22;;;;;;;;;;;;;;;;;;4898519;29;19924;-34
2022/09/26 16:38:47;;;;;;;;;;;;;;;;;;4893708;29;19952;-34
2022/09/26 16:41:12;;;;;;;;;;;;;;;;;;4889425;29;19931;-34
2022/09/26 16:43:38;;;;;;;;;;;;;;;;;;4900285;29;20475;-34
2022/09/26 16:46:03;;;;;;;;;;;;;;;;;;4902038;29;19922;-34